sensor_id;sensor_type;location;lat;lon;timestamp;pressure;altitude;pressure_sealevel;temperature;humidity
55486;BME280;49383;-25.924;28.194;2023-04-19T00:00:21;85588.09;;;22.87;31.38
55486;BME280;49383;-25.924;28.194;2023-04-19T00:02:46;85586.86;;;23.13;31.37
55486;BME280;49383;-25.924;28.194;2023-04-19T00:05:13;85585.68;;;22.86;31.41
55486;BME280;49383;-25.924;28.194;2023-04-19T00:07:37;85582.01;;;22.85;31.36
55486;BME280;49383;-25.924;28.194;2023-04-19T00:10:03;85577.03;;;22.84;31.39
55486;BME280;49383;-25.924;28.194;2023-04-19T00:12:27;85577.81;;;23.11;31.39
55486;BME280;49383;-25.924;28.194;2023-04-19T00:14:57;85576.25;;;22.84;31.39
55486;BME280;49383;-25.924;28.194;2023-04-19T00:17:18;85574.90;;;22.83;31.48
55486;BME280;49383;-25.924;28.194;2023-04-19T00:19:43;85571.01;;;23.09;31.47
55486;BME280;49383;-25.924;28.194;2023-04-19T00:22:08;85568.87;;;23.09;31.40
55486;BME280;49383;-25.924;28.194;2023-04-19T00:24:33;85568.67;;;23.08;31.41
55486;BME280;49383;-25.924;28.194;2023-04-19T00:26:59;85567.64;;;22.81;31.43
55486;BME280;49383;-25.924;28.194;2023-04-19T00:29:24;85567.01;;;23.08;31.46
55486;BME280;49383;-25.924;28.194;2023-04-19T00:31:50;85564.91;;;22.80;31.47
55486;BME280;49383;-25.924;28.194;2023-04-19T00:34:15;85564.07;;;22.79;31.53
55486;BME280;49383;-25.924;28.194;2023-04-19T00:36:40;85560.46;;;22.78;31.44
55486;BME280;49383;-25.924;28.194;2023-04-19T00:39:07;85558.95;;;22.78;31.46
55486;BME280;49383;-25.924;28.194;2023-04-19T00:41:31;85555.98;;;22.77;31.48
55486;BME280;49383;-25.924;28.194;2023-04-19T00:43:57;85555.04;;;23.25;31.44
55486;BME280;49383;-25.924;28.194;2023-04-19T00:46:22;85550.40;;;23.24;31.46
55486;BME280;49383;-25.924;28.194;2023-04-19T00:48:48;85549.80;;;23.02;31.40
55486;BME280;49383;-25.924;28.194;2023-04-19T00:51:13;85547.57;;;22.74;31.46
55486;BME280;49383;-25.924;28.194;2023-04-19T00:53:40;85549.12;;;23.01;31.50
55486;BME280;49383;-25.924;28.194;2023-04-19T00:56:05;85548.54;;;23.02;31.49
55486;BME280;49383;-25.924;28.194;2023-04-19T00:58:31;85545.57;;;22.74;31.39
55486;BME280;49383;-25.924;28.194;2023-04-19T01:00:55;85549.46;;;22.73;31.50
55486;BME280;49383;-25.924;28.194;2023-04-19T01:03:20;85547.17;;;22.72;31.47
55486;BME280;49383;-25.924;28.194;2023-04-19T01:05:47;85545.35;;;22.98;31.43
55486;BME280;49383;-25.924;28.194;2023-04-19T01:08:11;85544.56;;;22.71;31.45
55486;BME280;49383;-25.924;28.194;2023-04-19T01:10:36;85544.50;;;22.97;31.44
55486;BME280;49383;-25.924;28.194;2023-04-19T01:13:01;85542.40;;;22.97;31.46
55486;BME280;49383;-25.924;28.194;2023-04-19T01:15:26;85541.18;;;23.19;31.49
55486;BME280;49383;-25.924;28.194;2023-04-19T01:17:52;85541.10;;;23.18;31.57
55486;BME280;49383;-25.924;28.194;2023-04-19T01:20:18;85540.26;;;23.18;31.53
55486;BME280;49383;-25.924;28.194;2023-04-19T01:22:44;85539.33;;;22.95;31.46
55486;BME280;49383;-25.924;28.194;2023-04-19T01:25:09;85538.47;;;22.95;31.45
55486;BME280;49383;-25.924;28.194;2023-04-19T01:27:34;85541.62;;;23.15;31.50
55486;BME280;49383;-25.924;28.194;2023-04-19T01:29:59;85539.46;;;22.93;31.43
55486;BME280;49383;-25.924;28.194;2023-04-19T01:32:25;85535.90;;;22.65;31.58
55486;BME280;49383;-25.924;28.194;2023-04-19T01:34:51;85535.67;;;22.91;31.55
55486;BME280;49383;-25.924;28.194;2023-04-19T01:37:16;85537.77;;;22.64;31.54
55486;BME280;49383;-25.924;28.194;2023-04-19T01:39:41;85534.78;;;22.90;31.58
55486;BME280;49383;-25.924;28.194;2023-04-19T01:42:14;85537.10;;;22.63;31.63
55486;BME280;49383;-25.924;28.194;2023-04-19T01:44:33;85539.29;;;22.62;31.59
55486;BME280;49383;-25.924;28.194;2023-04-19T01:46:58;85540.47;;;22.89;31.55
55486;BME280;49383;-25.924;28.194;2023-04-19T01:49:24;85544.46;;;22.63;31.46
55486;BME280;49383;-25.924;28.194;2023-04-19T01:51:49;85543.43;;;22.89;31.49
55486;BME280;49383;-25.924;28.194;2023-04-19T01:54:15;85539.94;;;22.88;31.51
55486;BME280;49383;-25.924;28.194;2023-04-19T01:56:40;85541.78;;;22.87;31.50
55486;BME280;49383;-25.924;28.194;2023-04-19T01:59:05;85540.66;;;22.60;31.51
55486;BME280;49383;-25.924;28.194;2023-04-19T02:01:34;85545.40;;;22.59;31.55
55486;BME280;49383;-25.924;28.194;2023-04-19T02:03:57;85547.74;;;22.85;31.60
55486;BME280;49383;-25.924;28.194;2023-04-19T02:06:22;85545.06;;;22.85;31.55
55486;BME280;49383;-25.924;28.194;2023-04-19T02:08:48;85545.17;;;22.57;31.62
55486;BME280;49383;-25.924;28.194;2023-04-19T02:11:13;85546.44;;;23.06;31.63
55486;BME280;49383;-25.924;28.194;2023-04-19T02:13:37;85545.04;;;23.08;31.47
55486;BME280;49383;-25.924;28.194;2023-04-19T02:16:03;85545.11;;;23.07;31.45
55486;BME280;49383;-25.924;28.194;2023-04-19T02:18:28;85541.68;;;22.57;31.43
55486;BME280;49383;-25.924;28.194;2023-04-19T02:20:53;85541.62;;;22.83;31.53
55486;BME280;49383;-25.924;28.194;2023-04-19T02:23:18;85544.93;;;22.82;31.57
55486;BME280;49383;-25.924;28.194;2023-04-19T02:25:44;85544.59;;;22.80;31.56
55486;BME280;49383;-25.924;28.194;2023-04-19T02:28:09;85545.29;;;23.01;31.65
55486;BME280;49383;-25.924;28.194;2023-04-19T02:30:36;85541.28;;;22.78;31.66
55486;BME280;49383;-25.924;28.194;2023-04-19T02:33:00;85541.06;;;22.99;31.67
55486;BME280;49383;-25.924;28.194;2023-04-19T02:35:26;85543.27;;;22.99;31.61
55486;BME280;49383;-25.924;28.194;2023-04-19T02:37:50;85544.46;;;22.77;31.56
55486;BME280;49383;-25.924;28.194;2023-04-19T02:40:15;85545.50;;;22.77;31.43
55486;BME280;49383;-25.924;28.194;2023-04-19T02:42:40;85549.94;;;22.99;31.44
55486;BME280;49383;-25.924;28.194;2023-04-19T02:45:07;85552.15;;;22.98;31.42
55486;BME280;49383;-25.924;28.194;2023-04-19T02:47:31;85549.95;;;22.75;31.44
55486;BME280;49383;-25.924;28.194;2023-04-19T02:49:56;85550.60;;;22.48;31.42
55486;BME280;49383;-25.924;28.194;2023-04-19T02:52:22;85552.18;;;22.46;31.35
55486;BME280;49383;-25.924;28.194;2023-04-19T02:54:49;85555.17;;;22.73;31.38
55486;BME280;49383;-25.924;28.194;2023-04-19T02:57:14;85558.03;;;22.73;31.38
55486;BME280;49383;-25.924;28.194;2023-04-19T02:59:40;85560.10;;;22.72;31.36
55486;BME280;49383;-25.924;28.194;2023-04-19T03:02:05;85559.28;;;22.71;31.36
55486;BME280;49383;-25.924;28.194;2023-04-19T03:04:30;85560.36;;;22.70;31.29
55486;BME280;49383;-25.924;28.194;2023-04-19T03:06:55;85566.37;;;22.70;31.35
55486;BME280;49383;-25.924;28.194;2023-04-19T03:09:21;85567.27;;;22.92;31.16
55486;BME280;49383;-25.924;28.194;2023-04-19T03:11:46;85570.30;;;22.92;31.23
55486;BME280;49383;-25.924;28.194;2023-04-19T03:14:13;85570.85;;;22.69;31.31
55486;BME280;49383;-25.924;28.194;2023-04-19T03:16:36;85576.13;;;22.89;31.23
55486;BME280;49383;-25.924;28.194;2023-04-19T03:19:01;85578.81;;;22.39;31.36
55486;BME280;49383;-25.924;28.194;2023-04-19T03:21:27;85578.83;;;22.66;31.33
55486;BME280;49383;-25.924;28.194;2023-04-19T03:23:52;85577.69;;;22.66;31.19
55486;BME280;49383;-25.924;28.194;2023-04-19T03:26:17;85580.34;;;22.65;31.31
55486;BME280;49383;-25.924;28.194;2023-04-19T03:28:43;85578.51;;;22.87;31.29
55486;BME280;49383;-25.924;28.194;2023-04-19T03:31:09;85579.97;;;22.86;31.44
55486;BME280;49383;-25.924;28.194;2023-04-19T03:33:33;85579.24;;;22.85;31.34
55486;BME280;49383;-25.924;28.194;2023-04-19T03:35:59;85578.47;;;22.84;31.36
55486;BME280;49383;-25.924;28.194;2023-04-19T03:38:25;85579.82;;;22.84;31.29
55486;BME280;49383;-25.924;28.194;2023-04-19T03:40:50;85585.98;;;22.61;31.39
55486;BME280;49383;-25.924;28.194;2023-04-19T03:43:15;85587.53;;;22.83;31.29
55486;BME280;49383;-25.924;28.194;2023-04-19T03:45:41;85589.96;;;22.82;31.34
55486;BME280;49383;-25.924;28.194;2023-04-19T03:48:07;85591.18;;;22.59;31.37
55486;BME280;49383;-25.924;28.194;2023-04-19T03:50:32;85593.15;;;22.58;31.25
55486;BME280;49383;-25.924;28.194;2023-04-19T03:52:57;85595.69;;;22.81;31.36
55486;BME280;49383;-25.924;28.194;2023-04-19T03:55:23;85597.96;;;22.79;31.45
55486;BME280;49383;-25.924;28.194;2023-04-19T03:57:48;85601.04;;;22.79;31.34
55486;BME280;49383;-25.924;28.194;2023-04-19T04:00:15;85601.39;;;22.79;31.40
55486;BME280;49383;-25.924;28.194;2023-04-19T04:02:39;85603.73;;;22.78;31.42
55486;BME280;49383;-25.924;28.194;2023-04-19T04:05:05;85609.38;;;22.56;31.37
55486;BME280;49383;-25.924;28.194;2023-04-19T04:07:30;85611.13;;;22.77;31.37
55486;BME280;49383;-25.924;28.194;2023-04-19T04:09:55;85615.85;;;22.54;31.38
55486;BME280;49383;-25.924;28.194;2023-04-19T04:12:21;85616.36;;;22.53;31.37
55486;BME280;49383;-25.924;28.194;2023-04-19T04:14:46;85620.80;;;22.53;31.39
55486;BME280;49383;-25.924;28.194;2023-04-19T04:17:11;85625.46;;;22.75;31.36
55486;BME280;49383;-25.924;28.194;2023-04-19T04:19:36;85626.62;;;22.74;31.47
55486;BME280;49383;-25.924;28.194;2023-04-19T04:22:02;85631.49;;;22.51;31.48
55486;BME280;49383;-25.924;28.194;2023-04-19T04:24:28;85632.11;;;22.51;31.40
55486;BME280;49383;-25.924;28.194;2023-04-19T04:26:53;85637.67;;;22.72;31.35
55486;BME280;49383;-25.924;28.194;2023-04-19T04:29:18;85643.02;;;22.23;31.39
55486;BME280;49383;-25.924;28.194;2023-04-19T04:31:44;85649.55;;;22.50;31.45
55486;BME280;49383;-25.924;28.194;2023-04-19T04:34:09;85651.24;;;22.50;31.47
55486;BME280;49383;-25.924;28.194;2023-04-19T04:36:34;85653.22;;;22.23;31.38
55486;BME280;49383;-25.924;28.194;2023-04-19T04:38:59;85655.94;;;22.49;31.35
55486;BME280;49383;-25.924;28.194;2023-04-19T04:41:25;85657.42;;;22.72;31.37
55486;BME280;49383;-25.924;28.194;2023-04-19T04:43:49;85659.97;;;22.23;31.38
55486;BME280;49383;-25.924;28.194;2023-04-19T04:46:15;85660.84;;;22.50;31.41
55486;BME280;49383;-25.924;28.194;2023-04-19T04:48:40;85662.44;;;22.73;31.40
55486;BME280;49383;-25.924;28.194;2023-04-19T04:51:06;85664.56;;;22.52;31.52
55486;BME280;49383;-25.924;28.194;2023-04-19T04:53:31;85666.02;;;22.57;31.40
55486;BME280;49383;-25.924;28.194;2023-04-19T04:55:56;85665.77;;;22.58;31.94
55486;BME280;49383;-25.924;28.194;2023-04-19T04:58:22;85667.65;;;22.60;31.67
55486;BME280;49383;-25.924;28.194;2023-04-19T05:00:47;85671.81;;;22.63;32.14
55486;BME280;49383;-25.924;28.194;2023-04-19T05:03:12;85675.64;;;22.65;31.92
55486;BME280;49383;-25.924;28.194;2023-04-19T05:05:37;85677.41;;;22.69;31.96
55486;BME280;49383;-25.924;28.194;2023-04-19T05:08:03;85679.74;;;22.45;31.91
55486;BME280;49383;-25.924;28.194;2023-04-19T05:10:29;85681.84;;;22.78;31.81
55486;BME280;49383;-25.924;28.194;2023-04-19T05:12:54;85680.78;;;22.56;31.72
55486;BME280;49383;-25.924;28.194;2023-04-19T05:15:19;85682.83;;;22.59;31.81
55486;BME280;49383;-25.924;28.194;2023-04-19T05:17:44;85684.66;;;22.64;31.56
55486;BME280;49383;-25.924;28.194;2023-04-19T05:20:11;85683.54;;;22.69;31.43
55486;BME280;49383;-25.924;28.194;2023-04-19T05:22:36;85684.20;;;22.75;31.21
55486;BME280;49383;-25.924;28.194;2023-04-19T05:25:01;85686.85;;;22.81;31.20
55486;BME280;49383;-25.924;28.194;2023-04-19T05:27:26;85683.25;;;22.86;31.25
55486;BME280;49383;-25.924;28.194;2023-04-19T05:29:53;85687.74;;;22.90;31.07
55486;BME280;49383;-25.924;28.194;2023-04-19T05:32:17;85690.14;;;22.97;31.08
55486;BME280;49383;-25.924;28.194;2023-04-19T05:34:42;85691.27;;;22.58;31.17
55486;BME280;49383;-25.924;28.194;2023-04-19T05:37:08;85691.18;;;23.08;30.91
55486;BME280;49383;-25.924;28.194;2023-04-19T05:39:33;85692.58;;;23.12;31.00
55486;BME280;49383;-25.924;28.194;2023-04-19T05:41:59;85692.00;;;22.73;31.07
55486;BME280;49383;-25.924;28.194;2023-04-19T05:44:24;85692.81;;;23.01;30.92
55486;BME280;49383;-25.924;28.194;2023-04-19T05:46:50;85694.74;;;22.83;30.90
55486;BME280;49383;-25.924;28.194;2023-04-19T05:49:15;85694.61;;;23.09;31.00
55486;BME280;49383;-25.924;28.194;2023-04-19T05:51:43;85696.84;;;23.37;30.86
55486;BME280;49383;-25.924;28.194;2023-04-19T05:54:06;85699.16;;;23.20;30.87
55486;BME280;49383;-25.924;28.194;2023-04-19T05:56:32;85702.22;;;23.26;30.89
55486;BME280;49383;-25.924;28.194;2023-04-19T05:58:57;85704.05;;;23.08;30.85
55486;BME280;49383;-25.924;28.194;2023-04-19T06:01:23;85705.38;;;23.14;31.02
55486;BME280;49383;-25.924;28.194;2023-04-19T06:03:49;85708.30;;;23.43;30.88
55486;BME280;49383;-25.924;28.194;2023-04-19T06:06:14;85712.22;;;23.49;31.03
55486;BME280;49383;-25.924;28.194;2023-04-19T06:08:40;85713.57;;;23.39;30.83
55486;BME280;49383;-25.924;28.194;2023-04-19T06:11:05;85714.88;;;23.45;30.70
55486;BME280;49383;-25.924;28.194;2023-04-19T06:13:30;85716.34;;;23.51;30.87
55486;BME280;49383;-25.924;28.194;2023-04-19T06:15:55;85716.26;;;23.36;30.74
55486;BME280;49383;-25.924;28.194;2023-04-19T06:18:20;85719.38;;;23.43;30.76
55486;BME280;49383;-25.924;28.194;2023-04-19T06:20:45;85718.99;;;23.55;30.54
55486;BME280;49383;-25.924;28.194;2023-04-19T06:23:11;85719.69;;;23.86;30.67
55486;BME280;49383;-25.924;28.194;2023-04-19T06:25:38;85722.65;;;23.67;30.65
55486;BME280;49383;-25.924;28.194;2023-04-19T06:28:02;85727.99;;;24.01;30.57
55486;BME280;49383;-25.924;28.194;2023-04-19T06:30:28;85731.12;;;24.05;30.63
55486;BME280;49383;-25.924;28.194;2023-04-19T06:32:53;85730.98;;;24.01;30.64
55486;BME280;49383;-25.924;28.194;2023-04-19T06:35:19;85731.70;;;24.10;30.63
55486;BME280;49383;-25.924;28.194;2023-04-19T06:37:46;85731.54;;;23.85;30.59
55486;BME280;49383;-25.924;28.194;2023-04-19T06:40:11;85734.23;;;23.93;30.67
55486;BME280;49383;-25.924;28.194;2023-04-19T06:42:36;85739.35;;;23.78;30.48
55486;BME280;49383;-25.924;28.194;2023-04-19T06:45:02;85746.04;;;24.26;30.61
55486;BME280;49383;-25.924;28.194;2023-04-19T06:47:28;85749.60;;;24.32;30.55
55486;BME280;49383;-25.924;28.194;2023-04-19T06:49:52;85746.63;;;24.17;30.53
55486;BME280;49383;-25.924;28.194;2023-04-19T06:52:18;85740.38;;;24.19;30.53
55486;BME280;49383;-25.924;28.194;2023-04-19T06:54:47;85738.96;;;24.18;30.64
55486;BME280;49383;-25.924;28.194;2023-04-19T06:57:08;85739.68;;;24.01;30.58
55486;BME280;49383;-25.924;28.194;2023-04-19T06:59:33;85743.32;;;24.23;30.70
55486;BME280;49383;-25.924;28.194;2023-04-19T07:02:00;85744.63;;;24.05;30.63
55486;BME280;49383;-25.924;28.194;2023-04-19T07:04:25;85744.83;;;24.32;30.68
55486;BME280;49383;-25.924;28.194;2023-04-19T07:06:50;85745.78;;;24.21;30.39
55486;BME280;49383;-25.924;28.194;2023-04-19T07:09:16;85745.82;;;24.19;30.50
55486;BME280;49383;-25.924;28.194;2023-04-19T07:11:41;85745.23;;;24.26;30.58
55486;BME280;49383;-25.924;28.194;2023-04-19T07:14:06;85749.50;;;24.31;30.47
55486;BME280;49383;-25.924;28.194;2023-04-19T07:16:32;85752.67;;;24.35;30.56
55486;BME280;49383;-25.924;28.194;2023-04-19T07:18:57;85748.37;;;24.33;30.52
55486;BME280;49383;-25.924;28.194;2023-04-19T07:21:22;85747.32;;;24.47;30.41
55486;BME280;49383;-25.924;28.194;2023-04-19T07:23:47;85748.35;;;24.44;30.53
55486;BME280;49383;-25.924;28.194;2023-04-19T07:26:13;85751.35;;;24.45;30.48
55486;BME280;49383;-25.924;28.194;2023-04-19T07:28:40;85749.81;;;24.48;30.64
55486;BME280;49383;-25.924;28.194;2023-04-19T07:31:04;85748.30;;;24.49;30.63
55486;BME280;49383;-25.924;28.194;2023-04-19T07:33:30;85745.67;;;24.53;30.66
55486;BME280;49383;-25.924;28.194;2023-04-19T07:35:55;85745.98;;;24.27;30.61
55486;BME280;49383;-25.924;28.194;2023-04-19T07:38:20;85744.49;;;24.55;30.66
55486;BME280;49383;-25.924;28.194;2023-04-19T07:40:47;85747.43;;;24.56;30.64
55486;BME280;49383;-25.924;28.194;2023-04-19T07:43:11;85746.41;;;24.84;30.58
55486;BME280;49383;-25.924;28.194;2023-04-19T07:45:36;85748.59;;;24.61;30.66
55486;BME280;49383;-25.924;28.194;2023-04-19T07:48:02;85749.10;;;24.80;30.68
55486;BME280;49383;-25.924;28.194;2023-04-19T07:50:27;85750.11;;;24.63;30.60
55486;BME280;49383;-25.924;28.194;2023-04-19T07:52:53;85751.31;;;24.63;30.73
55486;BME280;49383;-25.924;28.194;2023-04-19T07:55:19;85746.87;;;24.62;30.76
55486;BME280;49383;-25.924;28.194;2023-04-19T07:57:44;85745.72;;;24.56;30.79
55486;BME280;49383;-25.924;28.194;2023-04-19T08:00:12;85745.01;;;24.58;30.81
55486;BME280;49383;-25.924;28.194;2023-04-19T08:02:35;85746.02;;;24.55;30.87
55486;BME280;49383;-25.924;28.194;2023-04-19T08:05:00;85743.19;;;24.55;30.86
55486;BME280;49383;-25.924;28.194;2023-04-19T08:07:25;85742.99;;;24.57;30.98
55486;BME280;49383;-25.924;28.194;2023-04-19T08:09:50;85742.76;;;24.33;30.94
55486;BME280;49383;-25.924;28.194;2023-04-19T08:12:16;85742.29;;;24.61;30.89
55486;BME280;49383;-25.924;28.194;2023-04-19T08:14:42;85741.03;;;24.63;30.87
55486;BME280;49383;-25.924;28.194;2023-04-19T08:17:07;85742.21;;;24.88;30.91
55486;BME280;49383;-25.924;28.194;2023-04-19T08:19:32;85742.12;;;24.68;30.89
55486;BME280;49383;-25.924;28.194;2023-04-19T08:21:58;85740.10;;;24.70;30.85
55486;BME280;49383;-25.924;28.194;2023-04-19T08:24:23;85735.62;;;24.71;30.84
55486;BME280;49383;-25.924;28.194;2023-04-19T08:26:49;85732.13;;;24.47;30.74
55486;BME280;49383;-25.924;28.194;2023-04-19T08:29:14;85732.45;;;24.76;30.79
55486;BME280;49383;-25.924;28.194;2023-04-19T08:31:43;85728.84;;;24.78;30.84
55486;BME280;49383;-25.924;28.194;2023-04-19T08:34:05;85725.13;;;24.79;30.79
55486;BME280;49383;-25.924;28.194;2023-04-19T08:36:30;85720.94;;;24.83;30.79
55486;BME280;49383;-25.924;28.194;2023-04-19T08:38:59;85719.81;;;24.84;30.69
55486;BME280;49383;-25.924;28.194;2023-04-19T08:41:21;85719.87;;;24.86;30.76
55486;BME280;49383;-25.924;28.194;2023-04-19T08:43:47;85719.57;;;24.89;30.68
55486;BME280;49383;-25.924;28.194;2023-04-19T08:46:12;85719.15;;;24.90;30.66
55486;BME280;49383;-25.924;28.194;2023-04-19T08:48:38;85717.18;;;24.91;30.78
55486;BME280;49383;-25.924;28.194;2023-04-19T08:51:03;85714.03;;;24.65;30.83
55486;BME280;49383;-25.924;28.194;2023-04-19T08:53:29;85710.24;;;24.94;30.70
55486;BME280;49383;-25.924;28.194;2023-04-19T08:55:54;85707.87;;;24.95;30.69
55486;BME280;49383;-25.924;28.194;2023-04-19T08:58:19;85703.84;;;24.96;30.72
55486;BME280;49383;-25.924;28.194;2023-04-19T09:00:45;85699.95;;;24.97;30.67
55486;BME280;49383;-25.924;28.194;2023-04-19T09:03:10;85697.55;;;24.99;30.69
55486;BME280;49383;-25.924;28.194;2023-04-19T09:05:35;85693.09;;;25.00;30.74
55486;BME280;49383;-25.924;28.194;2023-04-19T09:10:27;85688.79;;;25.01;30.72
55486;BME280;49383;-25.924;28.194;2023-04-19T09:13:00;85687.11;;;25.02;30.73
55486;BME280;49383;-25.924;28.194;2023-04-19T09:15:33;85683.92;;;25.03;30.70
55486;BME280;49383;-25.924;28.194;2023-04-19T09:17:43;85681.93;;;25.05;30.66
55486;BME280;49383;-25.924;28.194;2023-04-19T09:20:08;85677.45;;;25.05;30.60
55486;BME280;49383;-25.924;28.194;2023-04-19T09:22:33;85677.62;;;25.05;30.61
55486;BME280;49383;-25.924;28.194;2023-04-19T09:24:59;85672.27;;;25.05;30.72
55486;BME280;49383;-25.924;28.194;2023-04-19T09:27:28;85668.55;;;25.06;30.58
55486;BME280;49383;-25.924;28.194;2023-04-19T09:29:53;85664.96;;;25.08;30.48
55486;BME280;49383;-25.924;28.194;2023-04-19T09:32:16;85662.56;;;25.08;30.55
55486;BME280;49383;-25.924;28.194;2023-04-19T09:37:11;85656.11;;;25.07;30.60
55486;BME280;49383;-25.924;28.194;2023-04-19T09:39:32;85652.43;;;25.07;30.52
55486;BME280;49383;-25.924;28.194;2023-04-19T09:41:57;85646.11;;;25.07;30.52
55486;BME280;49383;-25.924;28.194;2023-04-19T09:44:25;85640.77;;;25.06;30.54
55486;BME280;49383;-25.924;28.194;2023-04-19T09:46:48;85637.00;;;25.06;30.61
55486;BME280;49383;-25.924;28.194;2023-04-19T09:49:18;85634.21;;;25.05;30.58
55486;BME280;49383;-25.924;28.194;2023-04-19T09:51:40;85631.97;;;25.05;30.62
55486;BME280;49383;-25.924;28.194;2023-04-19T09:54:03;85628.68;;;25.05;30.61
55486;BME280;49383;-25.924;28.194;2023-04-19T09:56:29;85622.25;;;25.05;30.58
55486;BME280;49383;-25.924;28.194;2023-04-19T09:58:54;85616.75;;;25.05;30.65
55486;BME280;49383;-25.924;28.194;2023-04-19T10:01:20;85611.06;;;25.53;30.58
55486;BME280;49383;-25.924;28.194;2023-04-19T10:03:48;85609.15;;;25.03;30.59
55486;BME280;49383;-25.924;28.194;2023-04-19T10:06:10;85606.11;;;25.02;30.60
55486;BME280;49383;-25.924;28.194;2023-04-19T10:08:37;85598.35;;;25.01;30.73
55486;BME280;49383;-25.924;28.194;2023-04-19T10:11:02;85595.29;;;25.00;30.81
55486;BME280;49383;-25.924;28.194;2023-04-19T10:13:27;85590.77;;;24.99;30.70
55486;BME280;49383;-25.924;28.194;2023-04-19T10:15:52;85587.29;;;24.54;30.70
55486;BME280;49383;-25.924;28.194;2023-04-19T10:18:18;85583.64;;;25.23;30.49
55486;BME280;49383;-25.924;28.194;2023-04-19T10:20:50;85581.23;;;25.09;30.60
55486;BME280;49383;-25.924;28.194;2023-04-19T10:23:09;85578.81;;;24.75;30.67
55486;BME280;49383;-25.924;28.194;2023-04-19T10:25:36;85573.60;;;24.97;30.71
55486;BME280;49383;-25.924;28.194;2023-04-19T10:28:00;85569.15;;;24.93;30.83
55486;BME280;49383;-25.924;28.194;2023-04-19T10:30:26;85566.50;;;25.13;30.77
55486;BME280;49383;-25.924;28.194;2023-04-19T10:32:53;85562.86;;;25.10;30.87
55486;BME280;49383;-25.924;28.194;2023-04-19T10:35:19;85561.01;;;25.35;30.79
55486;BME280;49383;-25.924;28.194;2023-04-19T10:37:44;85551.43;;;25.07;30.88
55486;BME280;49383;-25.924;28.194;2023-04-19T10:40:08;85546.51;;;24.83;30.89
55486;BME280;49383;-25.924;28.194;2023-04-19T10:49:50;85529.33;;;25.01;30.90
55486;BME280;49383;-25.924;28.194;2023-04-19T10:54:40;85520.14;;;24.98;30.90
55486;BME280;49383;-25.924;28.194;2023-04-19T10:57:06;85516.89;;;24.96;30.78
55486;BME280;49383;-25.924;28.194;2023-04-19T10:59:31;85512.03;;;24.72;30.90
55486;BME280;49383;-25.924;28.194;2023-04-19T11:01:57;85509.49;;;24.70;30.81
55486;BME280;49383;-25.924;28.194;2023-04-19T11:04:23;85503.61;;;24.69;30.88
55486;BME280;49383;-25.924;28.194;2023-04-19T11:11:36;85489.30;;;25.13;30.90
55486;BME280;49383;-25.924;28.194;2023-04-19T11:14:03;85485.92;;;24.85;30.93
55486;BME280;49383;-25.924;28.194;2023-04-19T11:16:28;85483.43;;;24.61;30.94
55486;BME280;49383;-25.924;28.194;2023-04-19T11:18:53;85480.63;;;24.82;31.00
55486;BME280;49383;-25.924;28.194;2023-04-19T11:21:18;85475.30;;;24.81;30.94
55486;BME280;49383;-25.924;28.194;2023-04-19T11:23:43;85469.67;;;24.57;30.96
55486;BME280;49383;-25.924;28.194;2023-04-19T11:26:10;85465.15;;;24.78;30.97
55486;BME280;49383;-25.924;28.194;2023-04-19T11:28:35;85458.47;;;24.76;31.04
55486;BME280;49383;-25.924;28.194;2023-04-19T11:31:01;85456.90;;;25.02;30.97
55486;BME280;49383;-25.924;28.194;2023-04-19T11:33:26;85453.39;;;24.73;30.97
55486;BME280;49383;-25.924;28.194;2023-04-19T11:35:52;85451.14;;;24.72;30.97
55486;BME280;49383;-25.924;28.194;2023-04-19T11:38:18;85447.51;;;24.98;30.99
55486;BME280;49383;-25.924;28.194;2023-04-19T11:40:43;85440.56;;;24.69;31.00
55486;BME280;49383;-25.924;28.194;2023-04-19T11:43:09;85438.12;;;24.68;31.03
55486;BME280;49383;-25.924;28.194;2023-04-19T11:45:36;85433.05;;;24.93;31.00
55486;BME280;49383;-25.924;28.194;2023-04-19T11:48:00;85431.05;;;24.65;30.99
55486;BME280;49383;-25.924;28.194;2023-04-19T11:50:30;85428.68;;;24.65;30.97
55486;BME280;49383;-25.924;28.194;2023-04-19T11:52:51;85424.86;;;24.63;30.96
55486;BME280;49383;-25.924;28.194;2023-04-19T11:55:18;85420.39;;;24.62;30.97
55486;BME280;49383;-25.924;28.194;2023-04-19T11:57:43;85414.83;;;24.87;30.96
55486;BME280;49383;-25.924;28.194;2023-04-19T12:00:09;85413.35;;;24.86;31.00
55486;BME280;49383;-25.924;28.194;2023-04-19T12:02:39;85410.07;;;24.84;31.01
55486;BME280;49383;-25.924;28.194;2023-04-19T12:05:07;85406.67;;;24.83;30.96
55486;BME280;49383;-25.924;28.194;2023-04-19T12:07:24;85404.29;;;24.57;30.86
55486;BME280;49383;-25.924;28.194;2023-04-19T12:09:50;85400.55;;;24.82;30.85
55486;BME280;49383;-25.924;28.194;2023-04-19T12:17:09;85396.53;;;24.81;30.76
55486;BME280;49383;-25.924;28.194;2023-04-19T12:19:35;85395.83;;;24.53;30.76
55486;BME280;49383;-25.924;28.194;2023-04-19T12:24:21;85389.65;;;24.51;30.75
55486;BME280;49383;-25.924;28.194;2023-04-19T12:26:52;85388.52;;;24.28;30.84
55486;BME280;49383;-25.924;28.194;2023-04-19T12:29:12;85383.22;;;24.48;30.81
55486;BME280;49383;-25.924;28.194;2023-04-19T12:31:38;85380.85;;;24.74;30.90
55486;BME280;49383;-25.924;28.194;2023-04-19T12:34:03;85382.39;;;24.73;30.90
55486;BME280;49383;-25.924;28.194;2023-04-19T12:36:29;85378.73;;;24.46;30.90
55486;BME280;49383;-25.924;28.194;2023-04-19T12:38:54;85375.98;;;24.72;30.91
55486;BME280;49383;-25.924;28.194;2023-04-19T12:41:19;85372.54;;;24.71;30.91
55486;BME280;49383;-25.924;28.194;2023-04-19T12:43:44;85370.52;;;24.70;30.86
55486;BME280;49383;-25.924;28.194;2023-04-19T12:46:10;85369.55;;;24.70;30.93
55486;BME280;49383;-25.924;28.194;2023-04-19T12:48:36;85367.85;;;24.42;30.89
55486;BME280;49383;-25.924;28.194;2023-04-19T12:51:01;85364.18;;;24.41;30.89
55486;BME280;49383;-25.924;28.194;2023-04-19T12:53:27;85364.21;;;24.67;30.95
55486;BME280;49383;-25.924;28.194;2023-04-19T12:55:53;85362.13;;;24.66;30.95